sensor_id;sensor_type;location;lat;lon;timestamp;P1;durP1;ratioP1;P2;durP2;ratioP2
57389;SDS011;43217;52.694;6.214;2022-08-19T00:02:24;9.18;;;8.35;;
57389;SDS011;43217;52.694;6.214;2022-08-19T00:04:50;9.55;;;8.60;;
57389;SDS011;43217;52.694;6.214;2022-08-19T00:09:45;10.18;;;9.18;;
57389;SDS011;43217;52.694;6.214;2022-08-19T00:12:13;10.30;;;9.38;;
57389;SDS011;43217;52.694;6.214;2022-08-19T00:14:38;10.45;;;9.52;;
57389;SDS011;43217;52.694;6.214;2022-08-19T00:17:05;9.55;;;8.75;;
57389;SDS011;43217;52.694;6.214;2022-08-19T00:19:32;10.77;;;9.65;;
57389;SDS011;43217;52.694;6.214;2022-08-19T00:21:58;11.45;;;10.27;;
57389;SDS011;43217;52.694;6.214;2022-08-19T00:24:24;13.73;;;9.50;;
57389;SDS011;43217;52.694;6.214;2022-08-19T00:26:50;10.52;;;9.57;;
57389;SDS011;43217;52.694;6.214;2022-08-19T00:29:18;10.55;;;9.63;;
57389;SDS011;43217;52.694;6.214;2022-08-19T00:31:45;11.40;;;9.95;;
57389;SDS011;43217;52.694;6.214;2022-08-19T00:34:11;11.55;;;10.20;;
57389;SDS011;43217;52.694;6.214;2022-08-19T00:36:39;11.60;;;10.48;;
57389;SDS011;43217;52.694;6.214;2022-08-19T00:39:05;11.40;;;10.40;;
57389;SDS011;43217;52.694;6.214;2022-08-19T00:41:31;11.55;;;10.32;;
57389;SDS011;43217;52.694;6.214;2022-08-19T00:46:34;11.52;;;10.40;;
57389;SDS011;43217;52.694;6.214;2022-08-19T00:49:02;11.65;;;10.55;;
57389;SDS011;43217;52.694;6.214;2022-08-19T00:51:34;11.60;;;10.50;;
57389;SDS011;43217;52.694;6.214;2022-08-19T00:54:01;11.43;;;10.43;;
57389;SDS011;43217;52.694;6.214;2022-08-19T00:56:28;11.63;;;10.57;;
57389;SDS011;43217;52.694;6.214;2022-08-19T00:58:56;11.18;;;10.07;;
57389;SDS011;43217;52.694;6.214;2022-08-19T01:01:23;10.63;;;9.75;;
57389;SDS011;43217;52.694;6.214;2022-08-19T01:03:51;11.23;;;10.32;;
57389;SDS011;43217;52.694;6.214;2022-08-19T01:06:16;11.38;;;10.20;;
57389;SDS011;43217;52.694;6.214;2022-08-19T01:08:42;11.73;;;10.68;;
57389;SDS011;43217;52.694;6.214;2022-08-19T01:11:08;11.63;;;10.63;;
57389;SDS011;43217;52.694;6.214;2022-08-19T01:13:34;10.55;;;9.65;;
57389;SDS011;43217;52.694;6.214;2022-08-19T01:16:02;11.00;;;9.90;;
57389;SDS011;43217;52.694;6.214;2022-08-19T01:18:30;10.77;;;9.88;;
57389;SDS011;43217;52.694;6.214;2022-08-19T01:21:01;11.02;;;9.98;;
57389;SDS011;43217;52.694;6.214;2022-08-19T01:23:31;11.80;;;10.60;;
57389;SDS011;43217;52.694;6.214;2022-08-19T01:26:10;10.88;;;9.93;;
57389;SDS011;43217;52.694;6.214;2022-08-19T01:28:38;11.23;;;10.13;;
57389;SDS011;43217;52.694;6.214;2022-08-19T01:31:06;11.80;;;10.63;;
57389;SDS011;43217;52.694;6.214;2022-08-19T01:33:36;11.48;;;10.48;;
57389;SDS011;43217;52.694;6.214;2022-08-19T01:36:06;11.60;;;10.65;;
57389;SDS011;43217;52.694;6.214;2022-08-19T01:38:37;11.20;;;10.18;;
57389;SDS011;43217;52.694;6.214;2022-08-19T01:41:04;11.85;;;10.75;;
57389;SDS011;43217;52.694;6.214;2022-08-19T01:43:31;11.60;;;10.60;;
57389;SDS011;43217;52.694;6.214;2022-08-19T01:45:57;12.10;;;11.10;;
57389;SDS011;43217;52.694;6.214;2022-08-19T01:48:22;12.45;;;11.40;;
57389;SDS011;43217;52.694;6.214;2022-08-19T01:50:48;12.77;;;11.50;;
57389;SDS011;43217;52.694;6.214;2022-08-19T01:53:14;12.60;;;11.32;;
57389;SDS011;43217;52.694;6.214;2022-08-19T01:55:41;13.23;;;11.90;;
57389;SDS011;43217;52.694;6.214;2022-08-19T02:00:38;12.10;;;10.90;;
57389;SDS011;43217;52.694;6.214;2022-08-19T02:03:05;12.80;;;11.55;;
57389;SDS011;43217;52.694;6.214;2022-08-19T02:05:31;13.70;;;12.30;;
57389;SDS011;43217;52.694;6.214;2022-08-19T02:07:57;14.68;;;13.07;;
57389;SDS011;43217;52.694;6.214;2022-08-19T02:10:23;14.50;;;12.73;;
57389;SDS011;43217;52.694;6.214;2022-08-19T02:12:49;13.75;;;12.48;;
57389;SDS011;43217;52.694;6.214;2022-08-19T02:15:16;13.50;;;12.30;;
57389;SDS011;43217;52.694;6.214;2022-08-19T02:17:44;13.63;;;12.38;;
57389;SDS011;43217;52.694;6.214;2022-08-19T02:20:10;13.45;;;12.25;;
57389;SDS011;43217;52.694;6.214;2022-08-19T02:22:38;13.93;;;12.43;;
57389;SDS011;43217;52.694;6.214;2022-08-19T02:25:06;14.43;;;13.05;;
57389;SDS011;43217;52.694;6.214;2022-08-19T02:27:32;14.75;;;13.38;;
57389;SDS011;43217;52.694;6.214;2022-08-19T02:29:59;13.88;;;12.77;;
57389;SDS011;43217;52.694;6.214;2022-08-19T02:32:25;14.48;;;13.07;;
57389;SDS011;43217;52.694;6.214;2022-08-19T02:34:51;15.48;;;14.07;;
57389;SDS011;43217;52.694;6.214;2022-08-19T02:37:17;15.55;;;13.95;;
57389;SDS011;43217;52.694;6.214;2022-08-19T02:40:12;14.52;;;13.10;;
57389;SDS011;43217;52.694;6.214;2022-08-19T02:42:37;15.13;;;13.63;;
57389;SDS011;43217;52.694;6.214;2022-08-19T02:45:03;15.20;;;13.85;;
57389;SDS011;43217;52.694;6.214;2022-08-19T02:47:30;15.35;;;13.68;;
57389;SDS011;43217;52.694;6.214;2022-08-19T02:49:56;15.65;;;14.15;;
57389;SDS011;43217;52.694;6.214;2022-08-19T02:52:21;15.40;;;13.75;;
57389;SDS011;43217;52.694;6.214;2022-08-19T02:54:48;16.23;;;14.70;;
57389;SDS011;43217;52.694;6.214;2022-08-19T02:57:14;16.70;;;15.18;;
57389;SDS011;43217;52.694;6.214;2022-08-19T02:59:40;16.70;;;15.00;;
57389;SDS011;43217;52.694;6.214;2022-08-19T03:02:05;15.60;;;14.15;;
57389;SDS011;43217;52.694;6.214;2022-08-19T03:04:31;17.27;;;15.57;;
57389;SDS011;43217;52.694;6.214;2022-08-19T03:06:56;15.60;;;14.00;;
57389;SDS011;43217;52.694;6.214;2022-08-19T03:09:22;15.88;;;14.40;;
57389;SDS011;43217;52.694;6.214;2022-08-19T03:11:47;14.27;;;13.07;;
57389;SDS011;43217;52.694;6.214;2022-08-19T03:14:13;15.77;;;14.30;;
57389;SDS011;43217;52.694;6.214;2022-08-19T03:16:41;15.63;;;14.02;;
57389;SDS011;43217;52.694;6.214;2022-08-19T03:19:09;16.48;;;14.57;;
57389;SDS011;43217;52.694;6.214;2022-08-19T03:21:35;16.75;;;15.13;;
57389;SDS011;43217;52.694;6.214;2022-08-19T03:24:02;16.40;;;14.88;;
57389;SDS011;43217;52.694;6.214;2022-08-19T03:26:30;16.73;;;15.07;;
57389;SDS011;43217;52.694;6.214;2022-08-19T03:28:56;16.80;;;15.05;;
57389;SDS011;43217;52.694;6.214;2022-08-19T03:31:22;17.48;;;15.85;;
57389;SDS011;43217;52.694;6.214;2022-08-19T03:33:49;16.40;;;14.75;;
57389;SDS011;43217;52.694;6.214;2022-08-19T03:36:23;17.27;;;15.57;;
57389;SDS011;43217;52.694;6.214;2022-08-19T03:38:51;16.77;;;15.10;;
57389;SDS011;43217;52.694;6.214;2022-08-19T03:41:21;17.67;;;15.77;;
57389;SDS011;43217;52.694;6.214;2022-08-19T03:44:01;16.60;;;14.90;;
57389;SDS011;43217;52.694;6.214;2022-08-19T03:46:28;17.13;;;15.43;;
57389;SDS011;43217;52.694;6.214;2022-08-19T03:48:56;16.65;;;15.13;;
57389;SDS011;43217;52.694;6.214;2022-08-19T03:51:27;15.80;;;14.20;;
57389;SDS011;43217;52.694;6.214;2022-08-19T03:53:56;14.77;;;13.27;;
57389;SDS011;43217;52.694;6.214;2022-08-19T03:56:23;15.02;;;13.63;;
57389;SDS011;43217;52.694;6.214;2022-08-19T03:58:50;14.38;;;13.07;;
57389;SDS011;43217;52.694;6.214;2022-08-19T04:01:19;14.40;;;13.10;;
57389;SDS011;43217;52.694;6.214;2022-08-19T04:03:47;15.15;;;13.40;;
57389;SDS011;43217;52.694;6.214;2022-08-19T04:06:18;14.63;;;13.15;;
57389;SDS011;43217;52.694;6.214;2022-08-19T04:08:47;14.52;;;13.05;;
57389;SDS011;43217;52.694;6.214;2022-08-19T04:11:16;15.15;;;13.23;;
57389;SDS011;43217;52.694;6.214;2022-08-19T04:13:49;14.02;;;12.63;;
57389;SDS011;43217;52.694;6.214;2022-08-19T04:16:16;14.68;;;12.90;;
57389;SDS011;43217;52.694;6.214;2022-08-19T04:18:43;15.48;;;14.07;;
57389;SDS011;43217;52.694;6.214;2022-08-19T04:21:08;14.68;;;13.18;;
57389;SDS011;43217;52.694;6.214;2022-08-19T04:23:42;15.00;;;13.45;;
57389;SDS011;43217;52.694;6.214;2022-08-19T04:26:11;16.25;;;14.50;;
57389;SDS011;43217;52.694;6.214;2022-08-19T04:28:44;15.48;;;13.95;;
57389;SDS011;43217;52.694;6.214;2022-08-19T04:31:14;17.20;;;14.85;;
57389;SDS011;43217;52.694;6.214;2022-08-19T04:33:42;17.38;;;15.68;;
57389;SDS011;43217;52.694;6.214;2022-08-19T04:36:10;16.75;;;14.90;;
57389;SDS011;43217;52.694;6.214;2022-08-19T04:38:45;16.83;;;15.13;;
57389;SDS011;43217;52.694;6.214;2022-08-19T04:41:11;16.60;;;14.55;;
57389;SDS011;43217;52.694;6.214;2022-08-19T04:43:55;17.13;;;15.32;;
57389;SDS011;43217;52.694;6.214;2022-08-19T04:46:21;17.70;;;15.80;;
57389;SDS011;43217;52.694;6.214;2022-08-19T04:48:47;17.75;;;15.75;;
57389;SDS011;43217;52.694;6.214;2022-08-19T04:51:13;18.17;;;16.27;;
57389;SDS011;43217;52.694;6.214;2022-08-19T04:53:39;19.42;;;15.75;;
57389;SDS011;43217;52.694;6.214;2022-08-19T04:56:07;18.42;;;16.50;;
57389;SDS011;43217;52.694;6.214;2022-08-19T04:58:35;17.83;;;16.08;;
57389;SDS011;43217;52.694;6.214;2022-08-19T05:01:03;17.88;;;16.05;;
57389;SDS011;43217;52.694;6.214;2022-08-19T05:03:29;17.43;;;15.27;;
57389;SDS011;43217;52.694;6.214;2022-08-19T05:05:58;17.63;;;15.93;;
57389;SDS011;43217;52.694;6.214;2022-08-19T05:08:35;18.63;;;16.20;;
57389;SDS011;43217;52.694;6.214;2022-08-19T05:11:07;18.20;;;16.17;;
57389;SDS011;43217;52.694;6.214;2022-08-19T05:14:03;19.83;;;16.63;;
57389;SDS011;43217;52.694;6.214;2022-08-19T05:16:30;17.70;;;15.90;;
57389;SDS011;43217;52.694;6.214;2022-08-19T05:18:55;17.90;;;15.38;;
57389;SDS011;43217;52.694;6.214;2022-08-19T05:21:41;18.83;;;16.48;;
57389;SDS011;43217;52.694;6.214;2022-08-19T05:24:26;17.85;;;16.10;;
57389;SDS011;43217;52.694;6.214;2022-08-19T05:26:53;18.63;;;16.83;;
57389;SDS011;43217;52.694;6.214;2022-08-19T05:29:22;19.13;;;17.23;;
57389;SDS011;43217;52.694;6.214;2022-08-19T05:31:49;17.58;;;15.80;;
57389;SDS011;43217;52.694;6.214;2022-08-19T05:34:16;18.48;;;16.73;;
57389;SDS011;43217;52.694;6.214;2022-08-19T05:36:44;18.25;;;16.45;;
57389;SDS011;43217;52.694;6.214;2022-08-19T05:39:11;17.08;;;15.43;;
57389;SDS011;43217;52.694;6.214;2022-08-19T05:41:44;17.25;;;15.45;;
57389;SDS011;43217;52.694;6.214;2022-08-19T05:44:14;17.75;;;16.05;;
57389;SDS011;43217;52.694;6.214;2022-08-19T05:46:43;16.17;;;14.60;;
57389;SDS011;43217;52.694;6.214;2022-08-19T05:49:12;18.05;;;16.13;;
57389;SDS011;43217;52.694;6.214;2022-08-19T05:51:39;17.50;;;15.80;;
57389;SDS011;43217;52.694;6.214;2022-08-19T05:54:05;18.05;;;16.35;;
57389;SDS011;43217;52.694;6.214;2022-08-19T05:56:32;18.60;;;16.70;;
57389;SDS011;43217;52.694;6.214;2022-08-19T05:59:01;18.63;;;16.90;;
57389;SDS011;43217;52.694;6.214;2022-08-19T06:01:27;19.42;;;17.45;;
57389;SDS011;43217;52.694;6.214;2022-08-19T06:03:53;18.70;;;17.00;;
57389;SDS011;43217;52.694;6.214;2022-08-19T06:06:19;19.83;;;17.92;;
57389;SDS011;43217;52.694;6.214;2022-08-19T06:08:45;19.33;;;17.50;;
57389;SDS011;43217;52.694;6.214;2022-08-19T06:11:22;19.67;;;17.80;;
57389;SDS011;43217;52.694;6.214;2022-08-19T06:14:00;19.08;;;17.38;;
57389;SDS011;43217;52.694;6.214;2022-08-19T06:16:33;18.48;;;16.85;;
57389;SDS011;43217;52.694;6.214;2022-08-19T06:19:04;19.40;;;17.63;;
57389;SDS011;43217;52.694;6.214;2022-08-19T06:21:33;20.05;;;18.05;;
57389;SDS011;43217;52.694;6.214;2022-08-19T06:24:01;18.48;;;16.67;;
57389;SDS011;43217;52.694;6.214;2022-08-19T06:26:28;19.83;;;17.93;;
57389;SDS011;43217;52.694;6.214;2022-08-19T06:28:54;19.10;;;17.25;;
57389;SDS011;43217;52.694;6.214;2022-08-19T06:31:21;20.02;;;18.20;;
57389;SDS011;43217;52.694;6.214;2022-08-19T06:33:49;18.83;;;16.88;;
57389;SDS011;43217;52.694;6.214;2022-08-19T06:36:25;17.90;;;16.10;;
57389;SDS011;43217;52.694;6.214;2022-08-19T06:38:54;19.40;;;17.60;;
57389;SDS011;43217;52.694;6.214;2022-08-19T06:41:26;19.63;;;17.65;;
57389;SDS011;43217;52.694;6.214;2022-08-19T06:43:54;19.40;;;17.52;;
57389;SDS011;43217;52.694;6.214;2022-08-19T06:46:20;18.43;;;16.73;;
57389;SDS011;43217;52.694;6.214;2022-08-19T06:48:46;16.75;;;15.15;;
57389;SDS011;43217;52.694;6.214;2022-08-19T06:51:13;16.90;;;15.50;;
57389;SDS011;43217;52.694;6.214;2022-08-19T06:53:41;16.77;;;15.18;;
57389;SDS011;43217;52.694;6.214;2022-08-19T06:56:11;16.33;;;14.80;;
57389;SDS011;43217;52.694;6.214;2022-08-19T06:58:42;17.23;;;15.68;;
57389;SDS011;43217;52.694;6.214;2022-08-19T07:01:08;16.52;;;15.02;;
57389;SDS011;43217;52.694;6.214;2022-08-19T07:06:06;16.45;;;15.02;;
57389;SDS011;43217;52.694;6.214;2022-08-19T07:08:35;16.48;;;15.00;;
57389;SDS011;43217;52.694;6.214;2022-08-19T07:11:02;14.93;;;13.55;;
57389;SDS011;43217;52.694;6.214;2022-08-19T07:13:32;16.55;;;15.15;;
57389;SDS011;43217;52.694;6.214;2022-08-19T07:16:09;15.98;;;14.38;;
57389;SDS011;43217;52.694;6.214;2022-08-19T07:18:36;15.70;;;14.30;;
57389;SDS011;43217;52.694;6.214;2022-08-19T07:21:45;14.37;;;12.90;;
57389;SDS011;43217;52.694;6.214;2022-08-19T07:23:53;14.20;;;13.00;;
57389;SDS011;43217;52.694;6.214;2022-08-19T07:26:26;14.35;;;13.07;;
57389;SDS011;43217;52.694;6.214;2022-08-19T07:28:54;13.80;;;12.60;;
57389;SDS011;43217;52.694;6.214;2022-08-19T07:31:23;15.02;;;13.63;;
57389;SDS011;43217;52.694;6.214;2022-08-19T07:33:51;13.25;;;12.15;;
57389;SDS011;43217;52.694;6.214;2022-08-19T07:36:21;14.73;;;13.40;;
57389;SDS011;43217;52.694;6.214;2022-08-19T07:38:49;13.27;;;12.18;;
57389;SDS011;43217;52.694;6.214;2022-08-19T07:41:17;14.40;;;13.15;;
57389;SDS011;43217;52.694;6.214;2022-08-19T07:43:45;14.55;;;13.15;;
57389;SDS011;43217;52.694;6.214;2022-08-19T07:46:12;13.77;;;12.57;;
57389;SDS011;43217;52.694;6.214;2022-08-19T07:48:38;16.10;;;14.55;;
57389;SDS011;43217;52.694;6.214;2022-08-19T07:51:05;14.30;;;13.13;;
57389;SDS011;43217;52.694;6.214;2022-08-19T07:53:33;14.98;;;13.68;;
57389;SDS011;43217;52.694;6.214;2022-08-19T07:55:59;15.32;;;13.90;;
57389;SDS011;43217;52.694;6.214;2022-08-19T07:58:28;15.18;;;13.98;;
57389;SDS011;43217;52.694;6.214;2022-08-19T08:01:01;15.90;;;14.52;;
57389;SDS011;43217;52.694;6.214;2022-08-19T08:03:28;15.43;;;14.13;;
57389;SDS011;43217;52.694;6.214;2022-08-19T08:06:12;16.65;;;14.98;;
57389;SDS011;43217;52.694;6.214;2022-08-19T08:08:57;17.77;;;16.30;;
57389;SDS011;43217;52.694;6.214;2022-08-19T08:11:47;18.85;;;17.25;;
57389;SDS011;43217;52.694;6.214;2022-08-19T08:14:20;18.35;;;16.77;;
57389;SDS011;43217;52.694;6.214;2022-08-19T08:16:48;19.67;;;18.08;;
57389;SDS011;43217;52.694;6.214;2022-08-19T08:19:16;19.77;;;17.98;;
57389;SDS011;43217;52.694;6.214;2022-08-19T08:21:44;18.27;;;16.77;;
57389;SDS011;43217;52.694;6.214;2022-08-19T08:24:10;19.00;;;17.50;;
57389;SDS011;43217;52.694;6.214;2022-08-19T08:26:37;18.95;;;17.45;;
57389;SDS011;43217;52.694;6.214;2022-08-19T08:29:03;18.70;;;17.20;;
57389;SDS011;43217;52.694;6.214;2022-08-19T08:31:28;20.63;;;18.83;;
57389;SDS011;43217;52.694;6.214;2022-08-19T08:33:54;19.43;;;17.73;;
57389;SDS011;43217;52.694;6.214;2022-08-19T08:36:20;17.57;;;16.03;;
57389;SDS011;43217;52.694;6.214;2022-08-19T08:38:46;17.85;;;16.35;;
57389;SDS011;43217;52.694;6.214;2022-08-19T08:41:16;17.83;;;16.33;;
57389;SDS011;43217;52.694;6.214;2022-08-19T08:43:55;17.95;;;16.30;;
57389;SDS011;43217;52.694;6.214;2022-08-19T08:52:21;17.20;;;15.80;;
57389;SDS011;43217;52.694;6.214;2022-08-19T08:54:53;16.40;;;14.90;;
57389;SDS011;43217;52.694;6.214;2022-08-19T09:00:00;16.60;;;15.20;;
57389;SDS011;43217;52.694;6.214;2022-08-19T09:02:31;17.58;;;16.08;;
57389;SDS011;43217;52.694;6.214;2022-08-19T09:04:57;17.70;;;16.13;;
57389;SDS011;43217;52.694;6.214;2022-08-19T09:15:57;16.52;;;15.23;;
57389;SDS011;43217;52.694;6.214;2022-08-19T09:21:27;14.90;;;13.60;;
57389;SDS011;43217;52.694;6.214;2022-08-19T09:28:48;14.70;;;13.38;;
57389;SDS011;43217;52.694;6.214;2022-08-19T09:31:18;13.90;;;12.65;;
57389;SDS011;43217;52.694;6.214;2022-08-19T09:33:46;15.43;;;13.98;;
57389;SDS011;43217;52.694;6.214;2022-08-19T09:36:14;14.65;;;13.35;;
57389;SDS011;43217;52.694;6.214;2022-08-19T09:38:42;17.10;;;15.60;;
57389;SDS011;43217;52.694;6.214;2022-08-19T09:41:12;16.92;;;15.32;;
57389;SDS011;43217;52.694;6.214;2022-08-19T09:43:41;17.13;;;15.50;;
57389;SDS011;43217;52.694;6.214;2022-08-19T09:46:10;17.90;;;16.27;;
57389;SDS011;43217;52.694;6.214;2022-08-19T09:48:36;15.63;;;14.25;;
57389;SDS011;43217;52.694;6.214;2022-08-19T09:53:43;13.20;;;12.05;;
57389;SDS011;43217;52.694;6.214;2022-08-19T09:56:10;15.55;;;14.25;;
57389;SDS011;43217;52.694;6.214;2022-08-19T09:58:36;16.80;;;15.35;;
57389;SDS011;43217;52.694;6.214;2022-08-19T10:01:03;17.30;;;15.80;;
57389;SDS011;43217;52.694;6.214;2022-08-19T10:03:30;17.30;;;15.68;;
57389;SDS011;43217;52.694;6.214;2022-08-19T10:05:57;20.67;;;18.75;;
57389;SDS011;43217;52.694;6.214;2022-08-19T10:08:31;20.23;;;18.42;;
57389;SDS011;43217;52.694;6.214;2022-08-19T10:11:02;20.23;;;18.55;;
57389;SDS011;43217;52.694;6.214;2022-08-19T10:13:29;19.80;;;18.02;;
57389;SDS011;43217;52.694;6.214;2022-08-19T10:16:02;21.50;;;19.70;;
57389;SDS011;43217;52.694;6.214;2022-08-19T10:18:32;23.27;;;21.17;;
57389;SDS011;43217;52.694;6.214;2022-08-19T10:21:41;20.40;;;18.50;;
57389;SDS011;43217;52.694;6.214;2022-08-19T10:23:50;20.20;;;18.27;;
57389;SDS011;43217;52.694;6.214;2022-08-19T10:26:19;19.30;;;17.80;;
57389;SDS011;43217;52.694;6.214;2022-08-19T10:28:50;21.48;;;19.58;;
57389;SDS011;43217;52.694;6.214;2022-08-19T10:31:16;19.33;;;17.63;;
57389;SDS011;43217;52.694;6.214;2022-08-19T10:33:45;20.33;;;18.63;;
57389;SDS011;43217;52.694;6.214;2022-08-19T10:36:13;16.13;;;14.77;;
57389;SDS011;43217;52.694;6.214;2022-08-19T10:38:45;15.38;;;13.90;;
57389;SDS011;43217;52.694;6.214;2022-08-19T10:41:15;16.48;;;15.07;;
57389;SDS011;43217;52.694;6.214;2022-08-19T10:43:47;19.35;;;17.63;;
57389;SDS011;43217;52.694;6.214;2022-08-19T10:46:17;17.23;;;15.75;;
57389;SDS011;43217;52.694;6.214;2022-08-19T10:48:44;17.90;;;16.23;;
57389;SDS011;43217;52.694;6.214;2022-08-19T10:51:10;21.40;;;19.67;;
57389;SDS011;43217;52.694;6.214;2022-08-19T10:53:55;20.27;;;18.40;;
57389;SDS011;43217;52.694;6.214;2022-08-19T10:56:22;23.50;;;21.48;;
57389;SDS011;43217;52.694;6.214;2022-08-19T10:59:06;22.35;;;20.35;;
57389;SDS011;43217;52.694;6.214;2022-08-19T11:01:32;21.80;;;19.90;;
57389;SDS011;43217;52.694;6.214;2022-08-19T11:04:02;19.50;;;17.80;;
57389;SDS011;43217;52.694;6.214;2022-08-19T11:06:31;21.50;;;19.60;;
57389;SDS011;43217;52.694;6.214;2022-08-19T11:08:57;22.05;;;20.13;;
57389;SDS011;43217;52.694;6.214;2022-08-19T11:11:23;23.53;;;21.60;;
57389;SDS011;43217;52.694;6.214;2022-08-19T11:13:52;23.37;;;21.37;;
57389;SDS011;43217;52.694;6.214;2022-08-19T11:16:20;23.98;;;21.88;;
57389;SDS011;43217;52.694;6.214;2022-08-19T11:18:48;23.77;;;21.58;;
57389;SDS011;43217;52.694;6.214;2022-08-19T11:21:17;26.42;;;24.13;;
57389;SDS011;43217;52.694;6.214;2022-08-19T11:23:45;21.38;;;19.48;;
57389;SDS011;43217;52.694;6.214;2022-08-19T11:26:13;22.30;;;20.13;;
57389;SDS011;43217;52.694;6.214;2022-08-19T11:28:38;16.83;;;15.45;;
57389;SDS011;43217;52.694;6.214;2022-08-19T11:31:09;16.57;;;15.13;;
57389;SDS011;43217;52.694;6.214;2022-08-19T11:33:43;20.83;;;18.85;;
57389;SDS011;43217;52.694;6.214;2022-08-19T11:36:09;20.60;;;18.60;;
57389;SDS011;43217;52.694;6.214;2022-08-19T11:38:36;20.80;;;18.80;;
57389;SDS011;43217;52.694;6.214;2022-08-19T11:41:04;22.97;;;20.80;;
57389;SDS011;43217;52.694;6.214;2022-08-19T11:43:32;20.38;;;18.40;;
57389;SDS011;43217;52.694;6.214;2022-08-19T11:45:59;20.92;;;19.10;;
57389;SDS011;43217;52.694;6.214;2022-08-19T11:48:25;21.38;;;19.13;;
57389;SDS011;43217;52.694;6.214;2022-08-19T11:50:52;21.87;;;19.77;;
57389;SDS011;43217;52.694;6.214;2022-08-19T11:53:20;19.10;;;17.33;;
57389;SDS011;43217;52.694;6.214;2022-08-19T11:55:46;17.70;;;16.07;;
57389;SDS011;43217;52.694;6.214;2022-08-19T12:00:40;17.02;;;15.15;;
57389;SDS011;43217;52.694;6.214;2022-08-19T12:03:06;16.73;;;15.23;;
57389;SDS011;43217;52.694;6.214;2022-08-19T12:05:32;17.00;;;15.68;;
57389;SDS011;43217;52.694;6.214;2022-08-19T12:07:58;18.50;;;16.57;;
57389;SDS011;43217;52.694;6.214;2022-08-19T12:10:23;16.77;;;15.30;;
57389;SDS011;43217;52.694;6.214;2022-08-19T12:12:49;16.47;;;14.87;;
57389;SDS011;43217;52.694;6.214;2022-08-19T12:15:15;16.80;;;15.30;;
57389;SDS011;43217;52.694;6.214;2022-08-19T12:17:41;14.77;;;13.37;;
57389;SDS011;43217;52.694;6.214;2022-08-19T12:20:08;14.02;;;12.75;;
57389;SDS011;43217;52.694;6.214;2022-08-19T12:22:35;14.95;;;13.68;;
57389;SDS011;43217;52.694;6.214;2022-08-19T12:25:02;11.88;;;10.85;;
57389;SDS011;43217;52.694;6.214;2022-08-19T12:27:28;13.50;;;12.25;;
57389;SDS011;43217;52.694;6.214;2022-08-19T12:29:54;17.07;;;15.33;;
57389;SDS011;43217;52.694;6.214;2022-08-19T12:32:20;18.23;;;16.43;;
57389;SDS011;43217;52.694;6.214;2022-08-19T12:34:46;16.63;;;15.07;;
57389;SDS011;43217;52.694;6.214;2022-08-19T12:37:12;13.03;;;11.87;;
57389;SDS011;43217;52.694;6.214;2022-08-19T12:39:39;16.83;;;15.27;;
57389;SDS011;43217;52.694;6.214;2022-08-19T12:42:06;17.15;;;15.45;;
57389;SDS011;43217;52.694;6.214;2022-08-19T12:44:34;14.45;;;12.95;;
57389;SDS011;43217;52.694;6.214;2022-08-19T12:47:01;13.02;;;11.77;;
57389;SDS011;43217;52.694;6.214;2022-08-19T12:49:28;11.48;;;10.57;;
57389;SDS011;43217;52.694;6.214;2022-08-19T12:51:56;12.35;;;11.20;;
57389;SDS011;43217;52.694;6.214;2022-08-19T12:54:23;13.80;;;12.55;;
57389;SDS011;43217;52.694;6.214;2022-08-19T12:56:49;15.23;;;13.83;;
57389;SDS011;43217;52.694;6.214;2022-08-19T12:59:14;14.57;;;13.27;;
57389;SDS011;43217;52.694;6.214;2022-08-19T13:01:43;13.82;;;12.52;;
57389;SDS011;43217;52.694;6.214;2022-08-19T13:04:09;12.85;;;11.65;;
57389;SDS011;43217;52.694;6.214;2022-08-19T13:06:35;13.43;;;11.27;;
57389;SDS011;43217;52.694;6.214;2022-08-19T13:09:02;17.00;;;15.30;;
57389;SDS011;43217;52.694;6.214;2022-08-19T13:13:57;15.77;;;14.27;;
57389;SDS011;43217;52.694;6.214;2022-08-19T13:16:23;15.17;;;13.77;;
57389;SDS011;43217;52.694;6.214;2022-08-19T13:18:49;14.30;;;13.00;;
57389;SDS011;43217;52.694;6.214;2022-08-19T13:21:18;14.90;;;13.48;;
57389;SDS011;43217;52.694;6.214;2022-08-19T13:23:45;16.98;;;15.40;;
57389;SDS011;43217;52.694;6.214;2022-08-19T13:26:12;15.63;;;14.10;;
57389;SDS011;43217;52.694;6.214;2022-08-19T13:28:38;16.73;;;14.93;;
57389;SDS011;43217;52.694;6.214;2022-08-19T13:31:24;14.82;;;13.35;;
57389;SDS011;43217;52.694;6.214;2022-08-19T13:34:10;15.00;;;13.57;;
57389;SDS011;43217;52.694;6.214;2022-08-19T13:36:36;16.80;;;15.07;;
57389;SDS011;43217;52.694;6.214;2022-08-19T13:39:03;17.75;;;16.10;;
57389;SDS011;43217;52.694;6.214;2022-08-19T13:41:29;21.45;;;19.10;;
57389;SDS011;43217;52.694;6.214;2022-08-19T13:43:55;18.30;;;16.53;;
57389;SDS011;43217;52.694;6.214;2022-08-19T13:46:22;17.20;;;15.60;;
57389;SDS011;43217;52.694;6.214;2022-08-19T13:48:47;17.10;;;15.43;;
57389;SDS011;43217;52.694;6.214;2022-08-19T13:51:15;19.40;;;15.70;;
57389;SDS011;43217;52.694;6.214;2022-08-19T13:53:41;17.17;;;15.52;;
57389;SDS011;43217;52.694;6.214;2022-08-19T13:56:08;17.58;;;15.80;;
57389;SDS011;43217;52.694;6.214;2022-08-19T13:58:37;14.18;;;12.43;;
57389;SDS011;43217;52.694;6.214;2022-08-19T14:01:03;14.85;;;13.32;;
57389;SDS011;43217;52.694;6.214;2022-08-19T14:03:30;15.75;;;14.15;;
57389;SDS011;43217;52.694;6.214;2022-08-19T14:05:56;17.52;;;15.70;;
57389;SDS011;43217;52.694;6.214;2022-08-19T14:08:21;16.43;;;14.73;;
57389;SDS011;43217;52.694;6.214;2022-08-19T14:10:47;15.17;;;12.90;;
57389;SDS011;43217;52.694;6.214;2022-08-19T14:13:17;12.00;;;10.20;;
57389;SDS011;43217;52.694;6.214;2022-08-19T14:15:45;13.13;;;11.70;;
57389;SDS011;43217;52.694;6.214;2022-08-19T14:18:12;11.50;;;10.45;;
57389;SDS011;43217;52.694;6.214;2022-08-19T14:20:38;12.07;;;10.95;;
57389;SDS011;43217;52.694;6.214;2022-08-19T14:23:04;13.63;;;12.23;;
57389;SDS011;43217;52.694;6.214;2022-08-19T14:25:30;15.15;;;13.63;;
57389;SDS011;43217;52.694;6.214;2022-08-19T14:27:57;14.85;;;13.45;;
57389;SDS011;43217;52.694;6.214;2022-08-19T14:30:24;17.75;;;15.10;;
57389;SDS011;43217;52.694;6.214;2022-08-19T14:32:57;17.23;;;15.40;;
57389;SDS011;43217;52.694;6.214;2022-08-19T14:35:24;17.90;;;16.02;;
57389;SDS011;43217;52.694;6.214;2022-08-19T14:37:50;15.70;;;14.30;;
57389;SDS011;43217;52.694;6.214;2022-08-19T14:40:21;20.98;;;15.40;;
57389;SDS011;43217;52.694;6.214;2022-08-19T14:42:54;15.38;;;13.88;;
57389;SDS011;43217;52.694;6.214;2022-08-19T14:45:24;15.70;;;14.10;;
57389;SDS011;43217;52.694;6.214;2022-08-19T14:47:51;14.90;;;13.40;;
57389;SDS011;43217;52.694;6.214;2022-08-19T14:50:17;15.97;;;14.43;;
57389;SDS011;43217;52.694;6.214;2022-08-19T14:52:44;14.90;;;13.18;;
57389;SDS011;43217;52.694;6.214;2022-08-19T14:55:11;15.27;;;13.68;;
57389;SDS011;43217;52.694;6.214;2022-08-19T14:57:37;13.00;;;11.67;;
57389;SDS011;43217;52.694;6.214;2022-08-19T15:00:03;13.45;;;12.05;;
57389;SDS011;43217;52.694;6.214;2022-08-19T15:02:29;14.18;;;12.75;;
57389;SDS011;43217;52.694;6.214;2022-08-19T15:04:55;11.83;;;10.67;;
57389;SDS011;43217;52.694;6.214;2022-08-19T15:07:21;13.77;;;12.43;;
57389;SDS011;43217;52.694;6.214;2022-08-19T15:09:48;12.90;;;11.57;;
57389;SDS011;43217;52.694;6.214;2022-08-19T15:12:15;12.68;;;10.50;;
57389;SDS011;43217;52.694;6.214;2022-08-19T15:14:41;8.95;;;8.07;;